Time;durP1;ratioP1;P1;durP2;ratioP2;P2;SDS_P1;SDS_P2;PMS_P1;PMS_P2;Temp;Humidity;BMP_temperature;BMP_pressure;BME280_temperature;BME280_humidity;BME280_pressure;Samples;Min_cycle;Max_cycle;Signal;HPM_P1;HPM_P2
2023/03/28 00:00:48;;;;;;;10.73;1.88;;;0.60;99.90;;;;;;4889583;29;20465;-74
2023/03/28 00:03:17;;;;;;;9.95;1.90;;;0.70;99.90;;;;;;4891046;29;20052;-74
2023/03/28 00:05:47;;;;;;;11.73;0.80;;;0.70;99.90;;;;;;4892187;29;20099;-74
2023/03/28 00:08:14;;;;;;;9.20;1.25;;;0.80;99.90;;;;;;4886091;29;20135;-74
2023/03/28 00:10:39;;;;;;;9.65;1.13;;;0.80;99.90;;;;;;4869116;29;20051;-74
2023/03/28 00:13:05;;;;;;;10.33;1.13;;;0.70;99.90;;;;;;4889057;29;20056;-74
2023/03/28 00:15:31;;;;;;;6.60;1.10;;;0.60;99.90;;;;;;4886826;29;20052;-74
2023/03/28 00:17:59;;;;;;;8.23;1.00;;;0.60;99.90;;;;;;4870485;29;20081;-74
2023/03/28 00:20:28;;;;;;;7.63;1.17;;;0.50;99.90;;;;;;4884838;29;20084;-74
2023/03/28 00:22:54;;;;;;;12.00;1.33;;;0.40;99.90;;;;;;4883941;29;20124;-74
2023/03/28 00:25:20;;;;;;;7.90;1.00;;;0.30;99.90;;;;;;4884397;29;20048;-74
2023/03/28 00:27:46;;;;;;;9.13;2.27;;;0.30;99.90;;;;;;4882899;29;20035;-74
2023/03/28 00:30:11;;;;;;;8.50;1.30;;;0.20;99.90;;;;;;4883446;29;20037;-74
2023/03/28 00:32:37;;;;;;;7.77;1.20;;;0.10;99.90;;;;;;4866790;29;20557;-74
2023/03/28 00:35:03;;;;;;;8.33;0.87;;;0.00;99.90;;;;;;4882681;29;20048;-74
2023/03/28 00:37:30;;;;;;;6.90;1.20;;;0.00;99.90;;;;;;4866611;29;20359;-74
2023/03/28 00:39:58;;;;;;;9.77;1.23;;;-0.10;99.90;;;;;;4883005;29;20368;-74
2023/03/28 00:42:25;;;;;;;11.10;1.42;;;-0.10;99.90;;;;;;4883216;29;20525;-74
2023/03/28 00:44:55;;;;;;;7.18;1.90;;;0.00;99.90;;;;;;4881741;29;20060;-74
2023/03/28 00:47:42;;;;;;;10.30;1.50;;;0.10;99.90;;;;;;4873925;29;20054;-74
2023/03/28 00:50:26;;;;;;;11.98;1.25;;;0.40;99.90;;;;;;4889469;29;20123;-74
2023/03/28 00:53:04;;;;;;;8.43;1.08;;;0.80;99.90;;;;;;4867436;29;20096;-74
2023/03/28 00:55:36;;;;;;;14.43;1.33;;;1.00;99.90;;;;;;4883000;29;20047;-74
2023/03/28 00:58:06;;;;;;;13.82;1.35;;;1.10;99.90;;;;;;4884896;29;20048;-74
2023/03/28 01:00:33;;;;;;;8.73;1.33;;;1.20;99.90;;;;;;4900286;29;20048;-74
2023/03/28 01:03:01;;;;;;;8.65;1.40;;;1.20;99.90;;;;;;4883924;29;20032;-74
2023/03/28 01:05:31;;;;;;;14.80;2.00;;;1.20;99.90;;;;;;4883754;29;20499;-74
2023/03/28 01:08:19;;;;;;;12.27;1.10;;;1.20;99.90;;;;;;4884246;29;20502;-74
2023/03/28 01:10:45;;;;;;;7.25;0.90;;;1.20;99.90;;;;;;4883858;29;20517;-74
2023/03/28 01:13:14;;;;;;;9.82;0.90;;;1.20;99.90;;;;;;4876635;29;20053;-74
2023/03/28 01:15:41;;;;;;;9.32;1.20;;;1.10;99.90;;;;;;4887014;29;20055;-74
2023/03/28 01:18:10;;;;;;;7.32;1.23;;;1.00;99.90;;;;;;4885548;29;20119;-74
2023/03/28 01:20:54;;;;;;;9.45;1.40;;;0.90;99.90;;;;;;4873377;29;20040;-74
2023/03/28 01:23:37;;;;;;;10.68;1.70;;;0.80;99.90;;;;;;4880839;29;20044;-74
2023/03/28 01:26:11;;;;;;;7.90;1.23;;;0.60;99.90;;;;;;4873454;29;20056;-74
2023/03/28 01:29:04;;;;;;;9.35;1.40;;;0.50;99.90;;;;;;4884130;29;20055;-74
2023/03/28 01:31:58;;;;;;;10.00;1.45;;;0.40;99.90;;;;;;4872080;29;20052;-74
2023/03/28 01:34:53;;;;;;;11.05;2.60;;;0.30;99.90;;;;;;4864892;29;20041;-74
2023/03/28 01:37:41;;;;;;;10.25;0.98;;;0.10;99.90;;;;;;4887086;29;20109;-74
2023/03/28 01:40:16;;;;;;;6.80;1.00;;;0.00;99.90;;;;;;4873095;29;20044;-74
2023/03/28 01:42:52;;;;;;;7.68;1.15;;;0.00;99.90;;;;;;4888417;29;20044;-74
2023/03/28 01:45:42;;;;;;;9.98;0.95;;;-0.10;99.90;;;;;;4873416;29;20045;-74
2023/03/28 01:48:35;;;;;;;14.52;1.00;;;-0.20;99.90;;;;;;4884895;29;20743;-74
2023/03/28 01:51:29;;;;;;;8.43;1.30;;;-0.30;99.90;;;;;;4890182;29;20111;-74
2023/03/28 01:54:11;;;;;;;8.45;0.82;;;-0.40;99.90;;;;;;4887736;29;20044;-74
2023/03/28 01:56:49;;;;;;;7.80;1.08;;;-0.50;99.90;;;;;;4887700;29;20104;-74
2023/03/28 01:59:28;;;;;;;12.90;1.10;;;-0.50;99.90;;;;;;4893876;29;20084;-74
2023/03/28 02:02:00;;;;;;;8.65;1.00;;;-0.60;99.90;;;;;;4873871;29;20048;-74
2023/03/28 02:04:28;;;;;;;9.90;1.30;;;-0.70;99.90;;;;;;4879086;29;20059;-74
2023/03/28 02:06:56;;;;;;;14.50;1.35;;;-0.70;99.90;;;;;;4888962;29;20040;-74
2023/03/28 02:09:25;;;;;;;6.68;1.45;;;-0.70;99.90;;;;;;4892770;29;20041;-74
2023/03/28 02:11:57;;;;;;;10.00;1.20;;;-0.80;99.90;;;;;;4896653;29;20044;-74
2023/03/28 02:14:26;;;;;;;9.98;1.02;;;-0.90;99.90;;;;;;4881652;29;20054;-74
2023/03/28 02:16:59;;;;;;;8.95;1.02;;;-0.90;99.90;;;;;;4881003;29;20044;-74
2023/03/28 02:19:26;;;;;;;8.75;1.27;;;-1.00;99.90;;;;;;4882112;29;20044;-74
2023/03/28 02:22:23;;;;;;;9.23;1.50;;;-1.00;99.90;;;;;;4897386;29;20072;-74
2023/03/28 02:24:50;;;;;;;11.25;1.20;;;-1.00;99.90;;;;;;4896620;29;20457;-74
2023/03/28 02:27:21;;;;;;;7.55;0.90;;;-1.10;99.90;;;;;;4896316;29;20052;-74
2023/03/28 02:29:53;;;;;;;7.75;1.30;;;-1.10;99.90;;;;;;4896934;29;20044;-74
2023/03/28 02:32:23;;;;;;;12.20;1.65;;;-1.00;99.90;;;;;;4878695;29;20048;-74
2023/03/28 02:34:52;;;;;;;7.22;0.88;;;-1.00;99.90;;;;;;4894476;29;20052;-74
2023/03/28 02:37:24;;;;;;;12.80;1.05;;;-0.90;99.90;;;;;;4894030;29;20059;-74
2023/03/28 02:40:10;;;;;;;11.05;1.70;;;-0.80;99.90;;;;;;4894024;29;20497;-74
2023/03/28 02:42:55;;;;;;;9.43;1.40;;;-0.80;99.90;;;;;;4876413;29;20083;-74
2023/03/28 02:45:39;;;;;;;8.98;1.40;;;-0.70;99.90;;;;;;4890210;29;20048;-74
2023/03/28 02:48:35;;;;;;;9.02;1.25;;;-0.80;99.90;;;;;;4889131;29;20048;-74
2023/03/28 02:51:06;;;;;;;;;;;-0.80;99.90;;;;;;4879288;29;20064;-74
2023/03/28 02:53:50;;;;;;;8.07;1.05;;;-0.90;99.90;;;;;;4882992;29;19919;-74
2023/03/28 02:56:22;;;;;;;10.27;1.10;;;-1.00;99.90;;;;;;4893372;29;20044;-74
2023/03/28 02:59:19;;;;;;;16.02;1.98;;;-1.00;99.90;;;;;;4892423;29;20055;-74
2023/03/28 03:01:45;;;;;;;8.77;1.10;;;-1.00;99.90;;;;;;4873168;29;20044;-74
2023/03/28 03:04:12;;;;;;;9.85;1.42;;;-1.00;99.90;;;;;;4876587;29;20064;-74
2023/03/28 03:06:38;;;;;;;8.98;1.30;;;-1.00;99.90;;;;;;4891584;29;20040;-74
2023/03/28 03:09:04;;;;;;;10.27;1.83;;;-1.10;99.90;;;;;;4892666;29;20626;-74
2023/03/28 03:11:31;;;;;;;8.23;1.80;;;-1.10;99.90;;;;;;4876814;29;21090;-74
2023/03/28 03:13:59;;;;;;;5.35;1.10;;;-1.10;99.90;;;;;;4891646;29;20072;-74
2023/03/28 03:16:24;;;;;;;8.98;1.10;;;-1.20;99.90;;;;;;4891710;29;20048;-74
2023/03/28 03:18:50;;;;;;;10.40;1.30;;;-1.20;99.90;;;;;;4892308;29;20104;-74
2023/03/28 03:21:16;;;;;;;15.07;1.50;;;-1.30;99.90;;;;;;4872639;29;20048;-74
2023/03/28 03:23:42;;;;;;;7.38;1.00;;;-1.30;99.90;;;;;;4891885;29;20047;-74
2023/03/28 03:26:08;;;;;;;9.80;0.90;;;-1.40;99.90;;;;;;4874816;29;20044;-74
2023/03/28 03:28:33;;;;;;;9.53;1.30;;;-1.40;99.90;;;;;;4884462;29;20124;-74
2023/03/28 03:31:00;;;;;;;10.33;1.20;;;-1.40;99.90;;;;;;4892012;29;20391;-74
2023/03/28 03:33:25;;;;;;;11.02;0.98;;;-1.40;99.90;;;;;;4873367;29;20044;-74
2023/03/28 03:35:52;;;;;;;10.03;1.53;;;-1.50;99.90;;;;;;4886555;29;20162;-74
2023/03/28 03:38:18;;;;;;;9.55;1.55;;;-1.50;99.90;;;;;;4896233;29;20100;-74
2023/03/28 03:40:43;;;;;;;8.90;1.83;;;-1.60;99.90;;;;;;4897104;29;20276;-74
2023/03/28 03:43:09;;;;;;;13.03;1.27;;;-1.60;99.90;;;;;;4880563;29;20051;-74
2023/03/28 03:45:36;;;;;;;10.60;2.63;;;-1.60;99.90;;;;;;4894642;29;20076;-74
2023/03/28 03:48:02;;;;;;;6.45;0.82;;;-1.60;99.90;;;;;;4894484;29;20036;-74
2023/03/28 03:50:28;;;;;;;11.70;1.23;;;-1.60;99.90;;;;;;4875362;29;20059;-74
2023/03/28 03:52:53;;;;;;;9.83;1.07;;;-1.60;99.90;;;;;;4889542;29;20097;-74
2023/03/28 03:55:19;;;;;;;10.50;1.23;;;-1.60;99.90;;;;;;4893624;29;20052;-74
2023/03/28 03:57:45;;;;;;;13.70;1.23;;;-1.60;99.90;;;;;;4879150;29;20052;-74
2023/03/28 04:00:11;;;;;;;12.50;1.27;;;-1.50;99.90;;;;;;4878332;29;20055;-74
2023/03/28 04:02:38;;;;;;;12.30;1.20;;;-1.50;99.90;;;;;;4891272;29;20037;-74
2023/03/28 04:05:06;;;;;;;9.80;1.10;;;-1.50;99.90;;;;;;4874128;29;20101;-74
2023/03/28 04:07:32;;;;;;;8.27;1.38;;;-1.50;99.90;;;;;;4891075;29;20040;-74
2023/03/28 04:09:58;;;;;;;12.47;1.10;;;-1.50;99.90;;;;;;4877685;29;20051;-74
2023/03/28 04:12:23;;;;;;;7.33;1.30;;;-1.50;99.90;;;;;;4890634;29;20089;-74
2023/03/28 04:14:49;;;;;;;9.93;1.20;;;-1.60;99.90;;;;;;4872317;29;20485;-73
2023/03/28 04:17:15;;;;;;;13.80;1.50;;;-1.60;99.90;;;;;;4872223;29;20121;-74
2023/03/28 04:19:41;;;;;;;10.17;1.30;;;-1.60;99.90;;;;;;4891316;29;20041;-74
2023/03/28 04:22:07;;;;;;;8.63;0.97;;;-1.60;99.90;;;;;;4890913;29;20047;-74
2023/03/28 04:24:35;;;;;;;10.20;1.47;;;-1.60;99.90;;;;;;4875134;29;20041;-74
2023/03/28 04:27:02;;;;;;;7.75;1.23;;;-1.70;99.90;;;;;;4876048;29;20304;-74
2023/03/28 04:29:30;;;;;;;11.48;1.40;;;-1.70;99.90;;;;;;4892083;29;20505;-74
2023/03/28 04:31:57;;;;;;;8.25;1.17;;;-1.70;99.90;;;;;;4890998;29;20028;-74
2023/03/28 04:34:30;;;;;;;4.43;0.80;;;-1.70;99.90;;;;;;4892043;29;20052;-74
2023/03/28 04:37:00;;;;;;;8.77;1.70;;;-1.70;99.90;;;;;;4874029;29;20040;-74
2023/03/28 04:39:31;;;;;;;9.45;1.02;;;-1.70;99.90;;;;;;4876663;29;20048;-74
2023/03/28 04:42:00;;;;;;;9.32;1.38;;;-1.60;99.90;;;;;;4885205;29;20154;-74
2023/03/28 04:44:28;;;;;;;11.48;1.40;;;-1.30;99.90;;;;;;4886361;29;20055;-74
2023/03/28 04:46:54;;;;;;;8.32;1.65;;;-1.10;99.90;;;;;;4882921;29;20080;-74
2023/03/28 04:49:20;;;;;;;12.85;1.15;;;-1.00;99.90;;;;;;4871516;29;20036;-74
2023/03/28 04:51:47;;;;;;;11.53;1.67;;;-0.90;99.90;;;;;;4890322;29;20041;-74
2023/03/28 04:54:13;;;;;;;7.47;1.00;;;-0.80;99.90;;;;;;4889769;29;20292;-74
2023/03/28 04:56:39;;;;;;;11.63;1.33;;;-0.70;99.90;;;;;;4888516;29;20128;-74
2023/03/28 04:59:05;;;;;;;10.18;1.10;;;-0.70;99.90;;;;;;4871905;29;20528;-74
2023/03/28 05:01:31;;;;;;;7.90;1.15;;;-0.60;99.90;;;;;;4882156;29;20041;-74
2023/03/28 05:03:57;;;;;;;9.30;1.30;;;-0.50;99.90;;;;;;4886446;29;20132;-74
2023/03/28 05:06:24;;;;;;;12.20;1.45;;;-0.50;99.90;;;;;;4858565;29;20037;-74
2023/03/28 05:08:50;;;;;;;10.32;1.60;;;-0.40;99.90;;;;;;4882695;29;20044;-74
2023/03/28 05:11:16;;;;;;;7.30;1.42;;;-0.30;99.90;;;;;;4882228;29;20040;-74
2023/03/28 05:13:42;;;;;;;10.53;2.10;;;-0.20;99.90;;;;;;4881158;29;20474;-74
2023/03/28 05:16:08;;;;;;;9.63;1.73;;;0.00;99.90;;;;;;4881835;29;20052;-74
2023/03/28 05:18:33;;;;;;;7.23;1.07;;;0.10;99.90;;;;;;4883213;29;20064;-74
2023/03/28 05:20:59;;;;;;;9.80;1.30;;;0.20;99.90;;;;;;4883880;29;20076;-74
2023/03/28 05:23:25;;;;;;;10.60;2.47;;;0.30;99.90;;;;;;4882236;29;20060;-75
2023/03/28 05:25:52;;;;;;;13.20;1.50;;;0.40;99.90;;;;;;4881477;29;20052;-74
2023/03/28 05:28:18;;;;;;;9.30;0.90;;;0.40;99.90;;;;;;4882110;29;20096;-74
2023/03/28 05:30:44;;;;;;;13.15;1.95;;;0.50;99.90;;;;;;4876301;29;20501;-74
2023/03/28 05:33:10;;;;;;;4.50;0.83;;;0.50;99.90;;;;;;4879788;29;20105;-74
2023/03/28 05:35:36;;;;;;;10.75;1.10;;;0.50;99.90;;;;;;4884921;29;20100;-74
2023/03/28 05:38:02;;;;;;;11.77;1.23;;;0.50;99.90;;;;;;4884006;29;20045;-74
2023/03/28 05:40:28;;;;;;;8.05;1.60;;;0.50;99.90;;;;;;4870672;29;20051;-74
2023/03/28 05:42:54;;;;;;;6.37;0.80;;;0.50;99.90;;;;;;4871868;29;20049;-74
2023/03/28 05:45:20;;;;;;;8.63;1.23;;;0.50;99.90;;;;;;4873374;29;20037;-74
2023/03/28 05:47:48;;;;;;;11.98;1.33;;;0.50;99.90;;;;;;4890565;29;20044;-74
2023/03/28 05:50:14;;;;;;;7.43;1.38;;;0.50;99.90;;;;;;4891260;29;20081;-74
2023/03/28 05:52:40;;;;;;;7.57;1.10;;;0.60;99.90;;;;;;4881842;29;20040;-74
2023/03/28 05:55:07;;;;;;;5.53;1.23;;;0.60;99.90;;;;;;4866066;29;20048;-74
2023/03/28 05:57:33;;;;;;;9.57;1.70;;;0.60;99.90;;;;;;4891375;29;20076;-74
2023/03/28 05:59:59;;;;;;;10.60;1.33;;;0.70;99.90;;;;;;4872551;29;20050;-74
2023/03/28 06:02:25;;;;;;;8.60;0.97;;;0.70;99.90;;;;;;4877207;29;20123;-75
2023/03/28 06:04:54;;;;;;;6.35;1.10;;;0.80;99.90;;;;;;4872238;29;20044;-74
2023/03/28 06:07:20;;;;;;;5.68;0.95;;;0.80;99.90;;;;;;4881605;29;20120;-74
2023/03/28 06:09:47;;;;;;;6.45;1.33;;;0.80;99.90;;;;;;4890181;29;20040;-74
2023/03/28 06:12:12;;;;;;;5.72;0.70;;;0.80;99.90;;;;;;4871541;29;20427;-74
2023/03/28 06:14:38;;;;;;;8.93;1.57;;;0.80;99.90;;;;;;4862656;29;20062;-74
2023/03/28 06:17:04;;;;;;;6.60;1.07;;;0.80;99.90;;;;;;4864909;29;20505;-74
2023/03/28 06:19:30;;;;;;;6.38;0.75;;;0.80;99.90;;;;;;4860274;29;20056;-74
2023/03/28 06:21:55;;;;;;;6.90;0.97;;;0.80;99.90;;;;;;4882448;29;20037;-74
2023/03/28 06:24:21;;;;;;;11.40;1.30;;;0.80;99.90;;;;;;4886286;29;20140;-74
2023/03/28 06:26:49;;;;;;;9.20;1.43;;;0.80;99.90;;;;;;4887852;29;20092;-74
2023/03/28 06:29:18;;;;;;;6.93;1.20;;;0.90;99.90;;;;;;4872240;29;20040;-74
2023/03/28 06:31:44;;;;;;;7.87;1.30;;;0.90;99.90;;;;;;4892180;29;20077;-74
2023/03/28 06:34:10;;;;;;;6.75;1.00;;;1.00;99.90;;;;;;4894015;29;20055;-75
2023/03/28 06:36:36;;;;;;;9.40;1.27;;;1.10;99.90;;;;;;4877082;29;20045;-75
2023/03/28 06:39:02;;;;;;;8.73;1.47;;;1.20;99.90;;;;;;4893349;29;20039;-75
2023/03/28 06:41:28;;;;;;;9.80;1.30;;;1.30;99.90;;;;;;4895371;29;20041;-75
2023/03/28 06:43:54;;;;;;;8.85;1.88;;;1.50;99.90;;;;;;4882379;29;20055;-75
2023/03/28 06:46:20;;;;;;;8.43;1.57;;;1.60;99.90;;;;;;4895410;29;20405;-75
2023/03/28 06:48:47;;;;;;;9.90;1.20;;;1.70;99.90;;;;;;4875064;29;20073;-75
2023/03/28 06:51:12;;;;;;;9.03;1.20;;;1.80;99.90;;;;;;4882624;29;20451;-75
2023/03/28 06:53:38;;;;;;;7.33;1.50;;;1.90;99.90;;;;;;4885887;29;20505;-75
2023/03/28 06:56:05;;;;;;;8.00;1.40;;;2.00;99.90;;;;;;4886630;29;20071;-75
2023/03/28 06:58:31;;;;;;;11.63;1.65;;;2.10;99.90;;;;;;4886881;29;20104;-75
2023/03/28 07:00:58;;;;;;;7.40;0.90;;;2.20;99.90;;;;;;4874002;29;20107;-75
2023/03/28 07:03:24;;;;;;;9.68;1.10;;;2.40;99.90;;;;;;4881425;29;20052;-75
2023/03/28 07:05:50;;;;;;;10.52;1.27;;;2.50;99.90;;;;;;4880863;29;20072;-75
2023/03/28 07:08:16;;;;;;;9.10;1.10;;;2.70;99.90;;;;;;4898160;29;20069;-75
2023/03/28 07:10:42;;;;;;;11.80;0.73;;;3.00;99.90;;;;;;4894869;29;20075;-75
2023/03/28 07:13:08;;;;;;;4.40;0.60;;;3.30;99.90;;;;;;4904485;29;20040;-75
2023/03/28 07:15:34;;;;;;;9.57;0.90;;;3.70;99.90;;;;;;4900231;29;20075;-75
2023/03/28 07:18:00;;;;;;;4.00;0.77;;;4.00;99.90;;;;;;4898419;29;20056;-75
2023/03/28 07:20:26;;;;;;;5.57;0.73;;;4.20;99.90;;;;;;4896814;29;20050;-75
2023/03/28 07:22:52;;;;;;;5.50;1.02;;;4.50;99.90;;;;;;4880680;29;20067;-75
2023/03/28 07:25:19;;;;;;;6.07;1.40;;;4.60;99.90;;;;;;4895529;29;20048;-75
2023/03/28 07:27:44;;;;;;;5.28;0.60;;;4.70;99.90;;;;;;4893876;29;20044;-75
2023/03/28 07:30:11;;;;;;;3.43;0.50;;;4.80;99.90;;;;;;4894526;29;20064;-75
2023/03/28 07:32:36;;;;;;;3.67;0.60;;;4.90;99.90;;;;;;4891111;29;20041;-75
2023/03/28 07:35:05;;;;;;;2.43;0.90;;;4.90;99.90;;;;;;4892823;29;20043;-76
2023/03/28 07:37:32;;;;;;;2.33;0.70;;;5.00;99.90;;;;;;4878908;29;20057;-75
2023/03/28 07:39:59;;;;;;;4.90;0.60;;;5.00;99.90;;;;;;4867576;29;20040;-76
2023/03/28 07:42:25;;;;;;;2.55;0.40;;;5.10;99.90;;;;;;4870703;29;20099;-76
2023/03/28 07:44:51;;;;;;;3.97;0.50;;;5.10;99.90;;;;;;4874914;29;20037;-76
2023/03/28 07:47:17;;;;;;;4.82;0.50;;;5.20;99.90;;;;;;4875558;29;20042;-76
2023/03/28 07:49:44;;;;;;;5.00;1.00;;;5.20;99.90;;;;;;4890238;29;20072;-76
2023/03/28 07:52:10;;;;;;;3.72;0.40;;;5.10;99.90;;;;;;4891433;29;20040;-77
2023/03/28 07:54:36;;;;;;;8.00;0.50;;;5.10;99.90;;;;;;4878227;29;20063;-76
2023/03/28 07:57:03;;;;;;;4.70;0.70;;;5.10;99.90;;;;;;4893091;29;20051;-77
2023/03/28 07:59:32;;;;;;;3.83;0.50;;;5.10;99.90;;;;;;4910000;29;20060;-76
2023/03/28 08:01:57;;;;;;;3.40;0.40;;;5.10;99.90;;;;;;4891440;29;20051;-76
2023/03/28 08:04:23;;;;;;;4.97;0.50;;;5.10;99.90;;;;;;4887304;29;20403;-76
2023/03/28 08:06:51;;;;;;;8.10;0.80;;;5.10;99.90;;;;;;4877097;29;20044;-76
2023/03/28 08:09:17;;;;;;;4.85;0.55;;;5.20;99.90;;;;;;4874256;29;20041;-76
2023/03/28 08:11:44;;;;;;;5.60;0.45;;;5.30;99.90;;;;;;4876027;29;20037;-76
2023/03/28 08:14:15;;;;;;;7.47;0.70;;;5.30;99.90;;;;;;4886612;29;20060;-76
2023/03/28 08:16:42;;;;;;;2.72;0.30;;;5.50;99.90;;;;;;4886450;29;20517;-76
2023/03/28 08:19:11;;;;;;;3.92;0.32;;;5.60;99.90;;;;;;4869682;29;20047;-75
2023/03/28 08:21:38;;;;;;;5.38;0.30;;;5.70;99.90;;;;;;4870724;29;20063;-75
2023/03/28 08:24:09;;;;;;;5.47;0.60;;;5.90;99.90;;;;;;4872416;29;20401;-76
2023/03/28 08:26:37;;;;;;;3.58;0.30;;;5.90;99.90;;;;;;4866970;29;20063;-76
2023/03/28 08:29:05;;;;;;;5.55;0.50;;;6.10;99.00;;;;;;4886030;29;20065;-75
2023/03/28 08:31:31;;;;;;;4.22;0.80;;;6.20;97.70;;;;;;4869210;29;20112;-77
2023/03/28 08:33:57;;;;;;;6.13;0.45;;;6.30;96.00;;;;;;4890984;29;20047;-76
2023/03/28 08:36:26;;;;;;;6.57;0.50;;;6.40;95.70;;;;;;4870080;29;20044;-76
2023/03/28 08:38:53;;;;;;;4.35;0.70;;;6.60;95.90;;;;;;4869435;29;20048;-76
2023/03/28 08:41:40;;;;;;;4.57;0.40;;;6.70;96.00;;;;;;4893263;29;20579;-76
2023/03/28 08:44:06;;;;;;;3.03;0.52;;;6.80;89.70;;;;;;4866636;29;20057;-76
2023/03/28 08:46:34;;;;;;;4.27;0.50;;;6.90;77.90;;;;;;4874480;29;20052;-76
2023/03/28 08:49:06;;;;;;;3.22;0.82;;;6.90;77.10;;;;;;4876098;29;20052;-76
2023/03/28 08:51:37;;;;;;;3.08;0.35;;;6.90;78.70;;;;;;4890993;29;20055;-76
2023/03/28 08:54:18;;;;;;;4.03;0.30;;;6.90;76.80;;;;;;4887996;29;20086;-76
2023/03/28 08:56:49;;;;;;;4.93;0.50;;;7.00;77.00;;;;;;4890004;29;20041;-76
2023/03/28 08:59:20;;;;;;;4.60;0.57;;;6.90;73.20;;;;;;4879219;29;20041;-76
2023/03/28 09:01:46;;;;;;;2.42;0.43;;;6.90;73.40;;;;;;4893311;29;20051;-77
2023/03/28 09:04:30;;;;;;;3.35;0.55;;;6.90;73.40;;;;;;4889698;29;20040;-77
2023/03/28 09:07:25;;;;;;;4.00;0.80;;;7.00;73.30;;;;;;4880853;29;20053;-76
2023/03/28 09:10:26;;;;;;;3.78;0.77;;;7.10;73.60;;;;;;4831787;29;20106;-76
2023/03/28 09:13:23;;;;;;;2.20;0.45;;;7.20;72.40;;;;;;4880613;29;20033;-76
2023/03/28 09:15:52;;;;;;;6.32;0.85;;;7.40;73.50;;;;;;4893834;29;20064;-73
2023/03/28 09:19:05;;;;;;;2.75;0.40;;;7.40;68.60;;;;;;4874101;29;20084;-73
2023/03/28 09:21:56;;;;;;;4.60;0.77;;;7.40;69.30;;;;;;4896723;29;20445;-73
2023/03/28 09:24:50;;;;;;;5.50;0.90;;;7.60;70.70;;;;;;4884600;29;20629;-74
2023/03/28 09:27:34;;;;;;;4.25;0.93;;;7.80;69.70;;;;;;4877224;29;20063;-76
2023/03/28 09:30:22;;;;;;;6.75;0.77;;;7.80;66.10;;;;;;4878223;29;20040;-75
2023/03/28 09:32:51;;;;;;;3.60;0.73;;;7.80;70.00;;;;;;4875629;29;20097;-76
2023/03/28 09:35:22;;;;;;;6.60;0.80;;;7.90;69.00;;;;;;4876355;29;20055;-76
2023/03/28 09:37:53;;;;;;;5.25;0.82;;;7.90;67.80;;;;;;4877758;29;20052;-76
2023/03/28 09:40:23;;;;;;;5.88;1.00;;;8.00;69.00;;;;;;4895496;29;20041;-76
2023/03/28 09:43:03;;;;;;;6.65;1.13;;;8.20;68.80;;;;;;4893890;29;20684;-76
2023/03/28 09:45:34;;;;;;;5.72;1.13;;;8.20;68.60;;;;;;4871515;29;20117;-76
2023/03/28 09:48:02;;;;;;;4.25;1.13;;;8.10;66.70;;;;;;4892549;29;20051;-76
2023/03/28 09:50:28;;;;;;;5.22;1.20;;;8.00;69.10;;;;;;4873591;29;20076;-76
2023/03/28 09:52:56;;;;;;;6.28;1.33;;;8.10;71.10;;;;;;4869947;29;20112;-76
2023/03/28 09:55:33;;;;;;;4.88;1.42;;;8.10;73.40;;;;;;4897563;29;20060;-76
2023/03/28 09:58:10;;;;;;;7.57;1.35;;;8.20;75.30;;;;;;4881322;29;20143;-76
2023/03/28 10:00:39;;;;;;;6.03;2.08;;;8.30;73.90;;;;;;4880869;29;20139;-76
2023/03/28 10:03:21;;;;;;;7.35;1.70;;;8.30;74.90;;;;;;4895924;29;20076;-76
2023/03/28 10:05:50;;;;;;;10.02;1.70;;;8.30;75.20;;;;;;4895088;29;20120;-76
2023/03/28 10:08:35;;;;;;;8.43;1.75;;;8.40;75.70;;;;;;4896001;29;20044;-76
2023/03/28 10:11:13;;;;;;;3.58;1.58;;;8.30;73.50;;;;;;4878377;29;20045;-76
2023/03/28 10:13:49;;;;;;;4.47;1.30;;;8.40;75.20;;;;;;4896532;29;20041;-76
2023/03/28 10:16:31;;;;;;;5.10;1.73;;;8.50;73.90;;;;;;4895148;29;20056;-76
2023/03/28 10:18:56;;;;;;;5.78;2.10;;;8.50;72.30;;;;;;4893035;29;20605;-76
2023/03/28 10:21:29;;;;;;;6.07;1.70;;;8.60;70.70;;;;;;4876915;29;20041;-75
2023/03/28 10:24:07;;;;;;;5.40;1.83;;;8.70;69.00;;;;;;4890337;29;20062;-76
2023/03/28 10:26:33;;;;;;;7.45;2.15;;;8.80;68.10;;;;;;4880802;29;20136;-76
2023/03/28 10:29:02;;;;;;;6.17;2.20;;;9.00;69.80;;;;;;4886186;29;20076;-76
2023/03/28 10:31:30;;;;;;;8.45;2.05;;;9.00;67.70;;;;;;4871192;29;20168;-76
2023/03/28 10:33:58;;;;;;;4.07;1.65;;;9.10;67.10;;;;;;4874706;29;20067;-76
2023/03/28 10:36:41;;;;;;;6.45;2.20;;;9.10;65.90;;;;;;4888200;29;20051;-76
2023/03/28 10:39:22;;;;;;;6.30;2.22;;;9.10;64.90;;;;;;4869372;29;20060;-76
2023/03/28 10:41:56;;;;;;;3.97;1.80;;;9.20;64.70;;;;;;4895603;29;20044;-76
2023/03/28 10:44:31;;;;;;;6.03;2.40;;;9.10;65.60;;;;;;4888099;29;20029;-77
2023/03/28 10:47:16;;;;;;;6.05;2.08;;;9.10;66.30;;;;;;4888547;29;20533;-76
2023/03/28 10:49:49;;;;;;;7.63;2.25;;;9.10;63.50;;;;;;4888278;29;20080;-76
2023/03/28 10:52:47;;;;;;;9.85;2.20;;;9.20;65.00;;;;;;4882746;29;20041;-76
2023/03/28 10:55:18;;;;;;;6.70;2.08;;;9.30;66.60;;;;;;4881164;29;20498;-76
2023/03/28 10:58:09;;;;;;;5.90;2.15;;;9.20;66.60;;;;;;4873804;29;20048;-77
2023/03/28 11:01:16;;;;;;;4.72;1.85;;;9.30;66.00;;;;;;4889724;29;20048;-77
2023/03/28 11:03:45;;;;;;;4.82;2.05;;;9.20;64.70;;;;;;4802144;29;20540;-76
2023/03/28 11:06:19;;;;;;;7.95;2.25;;;9.20;64.70;;;;;;4891126;29;20044;-76
2023/03/28 11:09:27;;;;;;;9.77;2.97;;;9.20;63.20;;;;;;4887510;29;20044;-76
2023/03/28 11:11:59;;;;;;;7.20;2.72;;;9.20;61.60;;;;;;4889313;29;20044;-75
2023/03/28 11:14:25;;;;;;;9.35;2.53;;;9.20;64.20;;;;;;4875430;29;20055;-76
2023/03/28 11:17:35;;;;;;;8.38;2.70;;;9.20;63.60;;;;;;4866644;29;20036;-76
2023/03/28 11:20:22;;;;;;;10.80;2.50;;;9.40;63.00;;;;;;4866132;29;20063;-75
2023/03/28 11:23:16;;;;;;;9.57;2.70;;;9.50;61.10;;;;;;4866262;29;20112;-77
2023/03/28 11:25:51;;;;;;;7.93;2.80;;;9.60;61.60;;;;;;4885536;29;20092;-75
2023/03/28 11:28:59;;;;;;;4.43;2.28;;;9.70;62.30;;;;;;4909743;29;20382;-76
2023/03/28 11:31:37;;;;;;;5.93;2.03;;;9.90;61.70;;;;;;4797193;29;20111;-75
2023/03/28 11:34:21;;;;;;;6.35;2.15;;;10.00;61.40;;;;;;4873202;29;20356;-75
2023/03/28 11:37:16;;;;;;;6.93;2.20;;;10.10;59.20;;;;;;4879863;29;20040;-75
2023/03/28 11:39:46;;;;;;;6.93;2.38;;;10.10;56.80;;;;;;4889885;29;20409;-75
2023/03/28 11:42:19;;;;;;;7.15;2.10;;;9.80;56.90;;;;;;4869514;29;20037;-75
2023/03/28 11:45:17;;;;;;;5.45;2.25;;;9.80;56.50;;;;;;4884278;29;20048;-76
2023/03/28 11:47:48;;;;;;;7.10;2.33;;;9.90;58.70;;;;;;4890532;29;20084;-77
2023/03/28 11:50:21;;;;;;;6.85;2.83;;;10.00;59.70;;;;;;4877830;29;20055;-76
2023/03/28 11:52:55;;;;;;;5.90;2.28;;;10.20;59.00;;;;;;4879667;29;20099;-75
2023/03/28 11:55:43;;;;;;;7.28;2.55;;;10.10;55.00;;;;;;4876515;29;20079;-75
2023/03/28 11:58:25;;;;;;;6.90;2.38;;;10.10;56.00;;;;;;4892484;29;20179;-75
2023/03/28 12:00:56;;;;;;;4.77;2.27;;;10.10;56.90;;;;;;4893703;29;20056;-75
2023/03/28 12:03:30;;;;;;;5.38;2.28;;;10.20;56.50;;;;;;4876519;29;20288;-74
2023/03/28 12:06:21;;;;;;;6.03;2.10;;;10.10;54.20;;;;;;4887450;29;20048;-74
2023/03/28 12:08:59;;;;;;;5.70;2.63;;;10.10;55.30;;;;;;4895187;29;20045;-74
2023/03/28 12:11:32;;;;;;;6.10;2.40;;;10.20;57.00;;;;;;4889406;29;20296;-74
2023/03/28 12:14:04;;;;;;;8.35;2.75;;;10.20;53.90;;;;;;4878552;29;20377;-74
2023/03/28 12:16:36;;;;;;;10.07;2.47;;;10.20;53.40;;;;;;4893106;29;20056;-74
2023/03/28 12:19:05;;;;;;;5.88;2.35;;;10.20;53.50;;;;;;4878540;29;20654;-74
2023/03/28 12:21:43;;;;;;;8.57;2.20;;;10.10;54.40;;;;;;4884827;29;20088;-76
2023/03/28 12:24:34;;;;;;;6.30;2.60;;;10.00;52.50;;;;;;4894145;29;20297;-74
2023/03/28 12:26:59;;;;;;;5.47;2.00;;;9.90;53.90;;;;;;4894593;29;20372;-74
2023/03/28 12:29:29;;;;;;;6.93;2.60;;;9.80;53.50;;;;;;4889245;29;20281;-74
2023/03/28 12:32:18;;;;;;;9.60;3.30;;;9.80;55.10;;;;;;4890890;29;20131;-74
2023/03/28 12:34:52;;;;;;;8.25;3.25;;;9.80;54.30;;;;;;4876308;29;20056;-74
2023/03/28 12:37:28;;;;;;;5.72;2.67;;;9.80;55.00;;;;;;4878404;29;20040;-74
2023/03/28 12:39:59;;;;;;;6.30;2.70;;;9.80;55.00;;;;;;4886261;29;20361;-74
2023/03/28 12:42:26;;;;;;;10.75;3.25;;;9.70;55.10;;;;;;4886808;29;20320;-73
2023/03/28 12:45:02;;;;;;;6.15;2.90;;;9.70;55.20;;;;;;4864213;29;20051;-73
2023/03/28 12:47:41;;;;;;;4.47;2.80;;;9.80;53.60;;;;;;4884592;29;20060;-74
2023/03/28 12:50:25;;;;;;;5.77;2.70;;;9.70;54.00;;;;;;4883524;29;20619;-74
2023/03/28 12:52:51;;;;;;;6.73;2.80;;;9.80;53.10;;;;;;4870957;29;20281;-74
2023/03/28 12:55:23;;;;;;;7.35;2.90;;;9.90;52.40;;;;;;4869073;29;20442;-74
2023/03/28 12:57:50;;;;;;;4.47;2.50;;;9.90;52.10;;;;;;4867794;29;20037;-74
2023/03/28 13:00:46;;;;;;;7.22;2.95;;;9.80;52.80;;;;;;4885132;29;20285;-74
2023/03/28 13:03:50;;;;;;;7.60;2.50;;;9.90;53.10;;;;;;4885095;29;20045;-74
2023/03/28 13:06:32;;;;;;;7.40;2.88;;;9.90;52.10;;;;;;4876072;29;20312;-74
2023/03/28 13:09:06;;;;;;;6.28;2.50;;;9.90;52.60;;;;;;4863375;29;20051;-72
2023/03/28 13:11:50;;;;;;;9.40;3.10;;;10.00;54.30;;;;;;4882842;29;20119;-74
2023/03/28 13:14:40;;;;;;;8.57;2.80;;;10.10;53.30;;;;;;4877670;29;20292;-71
2023/03/28 13:17:15;;;;;;;6.63;2.80;;;10.10;53.10;;;;;;4879356;29;20368;-72
2023/03/28 13:19:41;;;;;;;;;;;10.10;53.30;;;;;;4865850;29;20345;-71